createdAt,value
2022-11-20T00:03:48.147Z,29.38
2022-11-20T00:08:10.842Z,25.65
2022-11-20T00:12:32.832Z,28.27
2022-11-20T00:16:54.368Z,26.83
2022-11-20T00:21:25.839Z,29.98
2022-11-20T00:25:47.826Z,30.10
2022-11-20T00:30:14.652Z,27.08
2022-11-20T00:34:36.784Z,26.15
2022-11-20T00:38:59.902Z,25.20
2022-11-20T00:43:21.897Z,25.10
2022-11-20T00:47:43.817Z,27.33
2022-11-20T00:52:05.723Z,25.27
2022-11-20T00:56:27.940Z,24.73
2022-11-20T01:00:50.757Z,23.88
2022-11-20T01:05:12.667Z,25.02
2022-11-20T01:09:34.600Z,24.17
2022-11-20T01:13:58.215Z,21.70
2022-11-20T01:18:20.033Z,22.83
2022-11-20T01:22:41.868Z,22.13
2022-11-20T01:27:03.822Z,22.00
2022-11-20T01:31:33.325Z,22.20
2022-11-20T01:36:04.393Z,21.75
2022-11-20T01:40:26.380Z,21.83
2022-11-20T01:44:59.208Z,21.83
2022-11-20T01:49:31.752Z,20.73
2022-11-20T01:53:56.509Z,21.42
2022-11-20T01:58:23.554Z,21.75
2022-11-20T02:02:54.561Z,23.33
2022-11-20T02:07:16.969Z,21.35
2022-11-20T02:11:38.989Z,21.27
2022-11-20T02:16:01.486Z,21.20
2022-11-20T02:20:23.442Z,23.00
2022-11-20T02:24:46.301Z,20.13
2022-11-20T02:29:08.302Z,21.85
2022-11-20T02:33:30.132Z,21.73
2022-11-20T02:37:56.149Z,21.37
2022-11-20T02:42:18.296Z,20.53
2022-11-20T02:46:40.006Z,21.98
2022-11-20T02:51:02.449Z,20.45
2022-11-20T02:55:24.200Z,20.98
2022-11-20T02:59:46.178Z,21.03
2022-11-20T03:04:08.292Z,21.13
2022-11-20T03:08:29.979Z,20.63
2022-11-20T03:12:56.604Z,19.90
2022-11-20T03:17:18.686Z,19.67
2022-11-20T03:21:40.671Z,19.38
2022-11-20T03:26:21.929Z,20.10
2022-11-20T03:30:43.755Z,20.03
2022-11-20T03:35:06.500Z,37.33
2022-11-20T03:39:28.038Z,20.85
2022-11-20T03:44:02.572Z,19.77
2022-11-20T03:48:24.536Z,17.88
2022-11-20T03:52:46.443Z,20.67
2022-11-20T03:57:08.485Z,19.13
2022-11-20T04:01:36.609Z,15.97
2022-11-20T04:06:23.254Z,18.53
2022-11-20T04:10:45.141Z,18.13
2022-11-20T04:15:07.532Z,18.65
2022-11-20T04:19:29.633Z,18.17
2022-11-20T04:23:53.836Z,15.85
2022-11-20T04:28:15.557Z,16.48
2022-11-20T04:32:37.440Z,15.67
2022-11-20T04:36:59.453Z,16.58
2022-11-20T04:41:24.466Z,16.73
2022-11-20T04:45:55.627Z,16.00
2022-11-20T04:50:17.417Z,16.17
2022-11-20T04:54:39.519Z,15.40
2022-11-20T04:59:03.614Z,16.13
2022-11-20T05:03:25.298Z,15.17
2022-11-20T05:07:47.123Z,14.83
2022-11-20T05:12:10.052Z,16.67
2022-11-20T05:16:32.201Z,15.57
2022-11-20T05:20:59.067Z,18.42
2022-11-20T05:25:20.778Z,16.37
2022-11-20T05:29:42.678Z,14.40
2022-11-20T05:34:04.586Z,15.23
2022-11-20T05:38:26.481Z,14.45
2022-11-20T05:42:48.506Z,17.07
2022-11-20T05:47:10.479Z,15.57
2022-11-20T05:51:32.391Z,15.65
2022-11-20T05:56:01.246Z,14.77
2022-11-20T06:00:23.471Z,13.98
2022-11-20T06:04:45.232Z,15.43
2022-11-20T06:09:07.198Z,14.57
2022-11-20T06:13:29.131Z,14.20
2022-11-20T06:17:56.886Z,14.20
2022-11-20T06:22:18.709Z,14.45
2022-11-20T06:26:40.685Z,13.23
2022-11-20T06:31:03.153Z,14.10
2022-11-20T06:35:25.145Z,13.03
2022-11-20T06:39:47.037Z,14.20
2022-11-20T06:44:08.809Z,13.18
2022-11-20T06:48:31.511Z,14.10
2022-11-20T06:52:53.344Z,67.27
2022-11-20T06:57:15.277Z,15.13
2022-11-20T07:01:37.141Z,13.13
2022-11-20T07:06:00.963Z,13.93
2022-11-20T07:10:22.949Z,13.65
2022-11-20T07:14:44.926Z,13.80
2022-11-20T07:19:06.964Z,13.63
2022-11-20T07:23:28.816Z,17.52
2022-11-20T07:27:50.825Z,18.05
2022-11-20T07:32:12.876Z,18.13
2022-11-20T07:36:34.786Z,15.52
2022-11-20T07:40:58.717Z,12.45
2022-11-20T07:45:22.042Z,10.05
2022-11-20T07:49:43.940Z,9.07
2022-11-20T07:54:06.174Z,8.45
2022-11-20T07:58:29.615Z,8.75
2022-11-20T08:02:51.654Z,7.53
2022-11-20T08:07:13.838Z,7.63
2022-11-20T08:11:54.278Z,8.07
2022-11-20T08:16:16.303Z,8.73
2022-11-20T08:20:39.119Z,9.40
2022-11-20T08:25:00.825Z,8.50
2022-11-20T08:29:22.860Z,9.90
2022-11-20T08:33:44.825Z,10.80
2022-11-20T08:38:07.321Z,9.55
2022-11-20T08:42:29.077Z,10.35
2022-11-20T08:46:50.962Z,9.50
2022-11-20T08:51:13.581Z,8.75
2022-11-20T08:55:38.673Z,8.85
2022-11-20T09:00:07.747Z,8.50
2022-11-20T09:04:29.967Z,8.68
2022-11-20T09:08:56.039Z,9.57
2022-11-20T09:13:18.025Z,9.10
2022-11-20T09:17:39.985Z,7.88
2022-11-20T09:22:02.110Z,7.72
2022-11-20T09:26:23.734Z,8.98
2022-11-20T09:30:45.880Z,7.97
2022-11-20T09:35:08.375Z,7.35
2022-11-20T09:39:30.117Z,7.85
2022-11-20T09:44:27.147Z,7.60
2022-11-20T09:49:00.560Z,9.60
2022-11-20T09:53:54.163Z,9.32
2022-11-20T09:58:46.058Z,9.88
2022-11-20T10:03:19.172Z,9.07
2022-11-20T10:07:57.691Z,10.25
2022-11-20T10:13:04.129Z,10.32
2022-11-20T10:18:09.082Z,9.88
2022-11-20T10:22:50.850Z,9.75
2022-11-20T10:27:21.506Z,12.00
2022-11-20T10:31:57.719Z,10.98
2022-11-20T10:36:31.541Z,11.18
2022-11-20T10:41:23.439Z,11.20
2022-11-20T10:46:01.617Z,11.45
2022-11-20T10:50:24.332Z,11.57
2022-11-20T10:54:54.828Z,11.80
2022-11-20T10:59:28.835Z,12.27
2022-11-20T11:03:53.295Z,11.20
2022-11-20T11:08:20.845Z,11.25
2022-11-20T11:12:47.912Z,12.15
2022-11-20T11:17:33.175Z,10.10
2022-11-20T11:21:58.478Z,10.98
2022-11-20T11:26:24.299Z,10.15
2022-11-20T11:30:46.989Z,10.07
2022-11-20T11:35:27.824Z,11.50
2022-11-20T11:40:03.851Z,11.40
2022-11-20T11:44:54.614Z,11.27
2022-11-20T11:49:19.967Z,11.27
2022-11-20T11:53:43.672Z,10.68
2022-11-20T11:58:35.918Z,11.73
2022-11-20T12:03:44.566Z,16.95
2022-11-20T12:08:48.134Z,11.23
2022-11-20T12:13:43.506Z,10.32
2022-11-20T12:18:15.492Z,11.77
2022-11-20T12:22:53.892Z,10.95
2022-11-20T12:27:21.618Z,11.27
2022-11-20T12:32:16.589Z,11.27
2022-11-20T12:37:08.355Z,11.10
2022-11-20T12:41:54.567Z,11.82
2022-11-20T12:46:37.187Z,11.25
2022-11-20T12:51:26.027Z,11.10
2022-11-20T12:56:11.831Z,11.70
2022-11-20T13:00:36.985Z,12.57
2022-11-20T13:05:10.614Z,12.35
2022-11-20T13:09:36.539Z,12.07
2022-11-20T13:14:18.630Z,14.50
2022-11-20T13:18:46.499Z,13.85
2022-11-20T13:23:08.272Z,14.10
2022-11-20T13:27:32.041Z,14.65
2022-11-20T13:32:20.920Z,14.48
2022-11-20T13:36:55.984Z,14.55
2022-11-20T13:41:38.969Z,15.13
2022-11-20T13:46:07.529Z,16.40
2022-11-20T13:50:58.566Z,15.52
2022-11-20T13:56:02.891Z,11.80
2022-11-20T14:00:26.696Z,12.43
2022-11-20T14:04:53.552Z,11.57
2022-11-20T14:09:29.877Z,10.95
2022-11-20T14:14:22.676Z,10.93
2022-11-20T14:18:44.907Z,10.75
2022-11-20T14:23:11.811Z,11.88
2022-11-20T14:27:43.035Z,12.18
2022-11-20T14:32:05.506Z,12.60
2022-11-20T14:36:28.355Z,13.52
2022-11-20T14:40:50.369Z,13.02
2022-11-20T14:45:13.617Z,13.63
2022-11-20T14:49:36.502Z,14.25
2022-11-20T14:54:13.016Z,13.60
2022-11-20T14:58:35.446Z,13.93
2022-11-20T15:02:58.201Z,13.68
2022-11-20T15:07:46.570Z,14.93
2022-11-20T15:12:19.231Z,14.73
2022-11-20T15:16:41.181Z,14.88
2022-11-20T15:21:11.225Z,16.45
2022-11-20T15:25:33.233Z,15.18
2022-11-20T15:29:55.068Z,14.75
2022-11-20T15:34:17.123Z,15.40
2022-11-20T15:38:39.075Z,16.80
2022-11-20T15:43:08.207Z,15.90
2022-11-20T15:47:36.472Z,14.52
2022-11-20T15:51:58.428Z,15.32
2022-11-20T15:56:20.500Z,15.38
2022-11-20T16:00:42.845Z,14.57
2022-11-20T16:05:10.694Z,25.10
2022-11-20T16:09:32.585Z,14.77
2022-11-20T16:14:13.156Z,15.55
2022-11-20T16:18:35.207Z,15.77
2022-11-20T16:22:57.347Z,17.95
2022-11-20T16:27:19.272Z,16.40
2022-11-20T16:31:41.278Z,17.92
2022-11-20T16:36:16.853Z,17.40
2022-11-20T16:40:38.575Z,17.35
2022-11-20T16:45:00.582Z,19.05
2022-11-20T16:49:22.486Z,18.95
2022-11-20T16:53:44.426Z,17.58
2022-11-20T16:58:06.472Z,19.65
2022-11-20T17:02:28.556Z,18.10
2022-11-20T17:06:51.052Z,18.55
2022-11-20T17:11:19.395Z,20.35
2022-11-20T17:15:43.464Z,19.42
2022-11-20T17:20:06.229Z,20.33
2022-11-20T17:24:31.857Z,20.15
2022-11-20T17:29:07.267Z,21.25
2022-11-20T17:33:29.621Z,21.98
2022-11-20T17:37:51.267Z,19.60
2022-11-20T17:42:29.762Z,21.08
2022-11-20T17:46:51.587Z,23.27
2022-11-20T17:51:22.814Z,20.77
2022-11-20T17:56:03.478Z,21.70
2022-11-20T18:00:26.239Z,22.80
2022-11-20T18:04:47.931Z,22.67
2022-11-20T18:09:10.953Z,22.42
2022-11-20T18:13:52.722Z,23.05
2022-11-20T18:18:14.857Z,21.73
2022-11-20T18:22:37.456Z,23.35
2022-11-20T18:26:59.595Z,22.65
2022-11-20T18:31:21.829Z,23.38
2022-11-20T18:35:43.645Z,21.40
2022-11-20T18:40:06.532Z,23.17
2022-11-20T18:44:51.020Z,24.33
2022-11-20T18:49:13.735Z,21.65
2022-11-20T18:53:36.253Z,23.55
2022-11-20T18:57:58.399Z,24.38
2022-11-20T19:02:21.770Z,25.52
2022-11-20T19:06:45.658Z,23.27
2022-11-20T19:11:10.896Z,26.80
2022-11-20T19:15:36.145Z,27.05
2022-11-20T19:19:57.950Z,27.73
2022-11-20T19:24:19.909Z,26.55
2022-11-20T19:28:41.928Z,24.88
2022-11-20T19:33:05.226Z,23.73
2022-11-20T19:37:27.227Z,22.90
2022-11-20T19:41:49.339Z,25.33
2022-11-20T19:46:11.266Z,25.25
2022-11-20T19:50:33.132Z,24.38
2022-11-20T19:54:55.223Z,23.23
2022-11-20T19:59:17.605Z,24.10
2022-11-20T20:03:40.236Z,24.30
2022-11-20T20:08:02.086Z,25.45
2022-11-20T20:12:25.062Z,25.42
2022-11-20T20:16:48.497Z,26.30
2022-11-20T20:21:14.293Z,25.35
2022-11-20T20:25:39.183Z,25.02
2022-11-20T20:30:01.167Z,24.02
2022-11-20T20:34:23.543Z,21.85
2022-11-20T20:38:46.520Z,24.67
2022-11-20T20:43:08.036Z,22.20
2022-11-20T20:47:37.672Z,26.17
2022-11-20T20:51:59.639Z,21.00
2022-11-20T20:56:21.818Z,23.90
2022-11-20T21:00:43.674Z,21.88
2022-11-20T21:05:06.129Z,22.70
2022-11-20T21:09:28.426Z,22.75
2022-11-20T21:13:50.583Z,22.40
2022-11-20T21:18:12.699Z,24.08
2022-11-20T21:22:36.571Z,25.55
2022-11-20T21:26:59.645Z,23.25
2022-11-20T21:31:25.077Z,22.70
2022-11-20T21:35:48.393Z,22.58
2022-11-20T21:40:10.497Z,22.38
2022-11-20T21:44:32.525Z,21.02
2022-11-20T21:48:54.576Z,21.90
2022-11-20T21:53:17.903Z,19.35
2022-11-20T21:57:39.846Z,21.27
2022-11-20T22:02:01.822Z,22.02
2022-11-20T22:06:25.644Z,18.73
2022-11-20T22:10:58.375Z,18.40
2022-11-20T22:15:38.982Z,19.58
2022-11-20T22:20:01.744Z,19.77
2022-11-20T22:24:24.183Z,20.10
2022-11-20T22:28:51.993Z,21.05
2022-11-20T22:33:14.178Z,20.70
2022-11-20T22:37:36.054Z,21.08
2022-11-20T22:41:58.276Z,22.65
2022-11-20T22:46:20.754Z,20.50
2022-11-20T22:50:42.338Z,19.75
2022-11-20T22:55:04.671Z,19.35
2022-11-20T22:59:26.691Z,19.33
2022-11-20T23:03:51.801Z,19.92
2022-11-20T23:08:13.580Z,20.55
2022-11-20T23:12:36.547Z,19.02
2022-11-20T23:16:58.974Z,19.05
2022-11-20T23:21:24.836Z,18.75
2022-11-20T23:25:47.047Z,20.10
2022-11-20T23:30:12.184Z,19.20
2022-11-20T23:34:33.920Z,17.83
2022-11-20T23:38:56.475Z,17.00
2022-11-20T23:43:20.785Z,19.27
2022-11-20T23:47:42.544Z,18.33
2022-11-20T23:52:04.734Z,18.00
2022-11-20T23:56:26.963Z,16.45
